sensor_id;sensor_type;location;lat;lon;timestamp;P1;durP1;ratioP1;P2;durP2;ratioP2
47481;SDS011;33219;47.410;9.730;2024-03-29T00:00:04;0.78;;;0.78;;
47481;SDS011;33219;47.410;9.730;2024-03-29T00:02:32;1.27;;;0.70;;
47481;SDS011;33219;47.410;9.730;2024-03-29T00:05:00;0.70;;;0.37;;
47481;SDS011;33219;47.410;9.730;2024-03-29T00:07:29;0.40;;;0.40;;
47481;SDS011;33219;47.410;9.730;2024-03-29T00:09:56;0.95;;;0.80;;
47481;SDS011;33219;47.410;9.730;2024-03-29T00:12:24;2.33;;;1.00;;
47481;SDS011;33219;47.410;9.730;2024-03-29T00:14:51;1.57;;;1.05;;
47481;SDS011;33219;47.410;9.730;2024-03-29T00:17:21;2.08;;;0.80;;
47481;SDS011;33219;47.410;9.730;2024-03-29T00:19:48;0.80;;;0.70;;
47481;SDS011;33219;47.410;9.730;2024-03-29T00:22:16;1.00;;;0.60;;
47481;SDS011;33219;47.410;9.730;2024-03-29T00:24:43;0.55;;;0.55;;
47481;SDS011;33219;47.410;9.730;2024-03-29T00:27:11;0.80;;;0.70;;
47481;SDS011;33219;47.410;9.730;2024-03-29T00:29:39;0.98;;;0.57;;
47481;SDS011;33219;47.410;9.730;2024-03-29T00:32:08;0.28;;;0.28;;
47481;SDS011;33219;47.410;9.730;2024-03-29T00:34:35;0.95;;;0.65;;
47481;SDS011;33219;47.410;9.730;2024-03-29T00:37:03;0.60;;;0.60;;
47481;SDS011;33219;47.410;9.730;2024-03-29T00:39:31;0.60;;;0.53;;
47481;SDS011;33219;47.410;9.730;2024-03-29T00:41:58;1.02;;;0.68;;
47481;SDS011;33219;47.410;9.730;2024-03-29T00:44:26;0.78;;;0.55;;
47481;SDS011;33219;47.410;9.730;2024-03-29T00:46:53;0.40;;;0.40;;
47481;SDS011;33219;47.410;9.730;2024-03-29T00:49:21;1.05;;;0.57;;
47481;SDS011;33219;47.410;9.730;2024-03-29T00:51:48;0.98;;;0.47;;
47481;SDS011;33219;47.410;9.730;2024-03-29T00:54:16;0.40;;;0.30;;
47481;SDS011;33219;47.410;9.730;2024-03-29T00:56:44;0.98;;;0.60;;
47481;SDS011;33219;47.410;9.730;2024-03-29T00:59:12;0.78;;;0.42;;
47481;SDS011;33219;47.410;9.730;2024-03-29T01:01:39;0.85;;;0.60;;
47481;SDS011;33219;47.410;9.730;2024-03-29T01:04:07;0.75;;;0.50;;
47481;SDS011;33219;47.410;9.730;2024-03-29T01:06:35;0.82;;;0.60;;
47481;SDS011;33219;47.410;9.730;2024-03-29T01:09:03;1.42;;;1.32;;
47481;SDS011;33219;47.410;9.730;2024-03-29T01:11:31;1.17;;;0.40;;
47481;SDS011;33219;47.410;9.730;2024-03-29T01:13:59;0.57;;;0.40;;
47481;SDS011;33219;47.410;9.730;2024-03-29T01:16:26;0.40;;;0.40;;
47481;SDS011;33219;47.410;9.730;2024-03-29T01:18:54;0.62;;;0.47;;
47481;SDS011;33219;47.410;9.730;2024-03-29T01:21:22;0.45;;;0.40;;
47481;SDS011;33219;47.410;9.730;2024-03-29T01:23:49;1.25;;;0.57;;
47481;SDS011;33219;47.410;9.730;2024-03-29T01:26:17;0.72;;;0.53;;
47481;SDS011;33219;47.410;9.730;2024-03-29T01:28:45;0.72;;;0.50;;
47481;SDS011;33219;47.410;9.730;2024-03-29T01:31:12;0.62;;;0.47;;
47481;SDS011;33219;47.410;9.730;2024-03-29T01:33:40;0.57;;;0.47;;
47481;SDS011;33219;47.410;9.730;2024-03-29T01:36:08;0.60;;;0.45;;
47481;SDS011;33219;47.410;9.730;2024-03-29T01:38:35;0.65;;;0.47;;
47481;SDS011;33219;47.410;9.730;2024-03-29T01:41:03;0.40;;;0.40;;
47481;SDS011;33219;47.410;9.730;2024-03-29T01:43:31;0.68;;;0.60;;
47481;SDS011;33219;47.410;9.730;2024-03-29T01:45:58;0.95;;;0.60;;
47481;SDS011;33219;47.410;9.730;2024-03-29T01:48:26;0.65;;;0.60;;
47481;SDS011;33219;47.410;9.730;2024-03-29T01:50:56;1.00;;;0.50;;
47481;SDS011;33219;47.410;9.730;2024-03-29T01:53:24;0.75;;;0.53;;
47481;SDS011;33219;47.410;9.730;2024-03-29T01:55:54;0.90;;;0.70;;
47481;SDS011;33219;47.410;9.730;2024-03-29T01:58:22;0.82;;;0.60;;
47481;SDS011;33219;47.410;9.730;2024-03-29T02:00:54;1.40;;;0.70;;
47481;SDS011;33219;47.410;9.730;2024-03-29T02:03:23;0.98;;;0.70;;
47481;SDS011;33219;47.410;9.730;2024-03-29T02:05:51;1.75;;;0.70;;
47481;SDS011;33219;47.410;9.730;2024-03-29T02:08:21;2.42;;;0.72;;
47481;SDS011;33219;47.410;9.730;2024-03-29T02:10:49;0.62;;;0.60;;
47481;SDS011;33219;47.410;9.730;2024-03-29T02:13:17;0.75;;;0.60;;
47481;SDS011;33219;47.410;9.730;2024-03-29T02:15:44;0.75;;;0.50;;
47481;SDS011;33219;47.410;9.730;2024-03-29T02:18:12;0.57;;;0.50;;
47481;SDS011;33219;47.410;9.730;2024-03-29T02:20:40;0.93;;;0.53;;
47481;SDS011;33219;47.410;9.730;2024-03-29T02:23:11;1.67;;;0.55;;
47481;SDS011;33219;47.410;9.730;2024-03-29T02:25:43;0.60;;;0.50;;
47481;SDS011;33219;47.410;9.730;2024-03-29T02:28:12;0.80;;;0.70;;
47481;SDS011;33219;47.410;9.730;2024-03-29T02:30:40;0.80;;;0.80;;
47481;SDS011;33219;47.410;9.730;2024-03-29T02:33:08;2.45;;;1.10;;
47481;SDS011;33219;47.410;9.730;2024-03-29T02:35:35;1.22;;;0.80;;
47481;SDS011;33219;47.410;9.730;2024-03-29T02:38:03;0.60;;;0.60;;
47481;SDS011;33219;47.410;9.730;2024-03-29T02:40:30;0.75;;;0.62;;
47481;SDS011;33219;47.410;9.730;2024-03-29T02:42:58;1.65;;;0.80;;
47481;SDS011;33219;47.410;9.730;2024-03-29T02:45:26;2.60;;;0.85;;
47481;SDS011;33219;47.410;9.730;2024-03-29T02:47:53;0.78;;;0.60;;
47481;SDS011;33219;47.410;9.730;2024-03-29T02:50:24;0.60;;;0.60;;
47481;SDS011;33219;47.410;9.730;2024-03-29T02:52:51;1.85;;;0.50;;
47481;SDS011;33219;47.410;9.730;2024-03-29T02:55:19;0.80;;;0.60;;
47481;SDS011;33219;47.410;9.730;2024-03-29T02:57:47;1.07;;;0.65;;
47481;SDS011;33219;47.410;9.730;2024-03-29T03:00:14;2.27;;;0.88;;
47481;SDS011;33219;47.410;9.730;2024-03-29T03:02:42;2.22;;;0.80;;
47481;SDS011;33219;47.410;9.730;2024-03-29T03:05:10;1.10;;;0.70;;
47481;SDS011;33219;47.410;9.730;2024-03-29T03:07:37;1.17;;;0.80;;
47481;SDS011;33219;47.410;9.730;2024-03-29T03:10:23;0.82;;;0.70;;
47481;SDS011;33219;47.410;9.730;2024-03-29T03:13:09;0.65;;;0.62;;
47481;SDS011;33219;47.410;9.730;2024-03-29T03:15:36;1.02;;;0.68;;
47481;SDS011;33219;47.410;9.730;2024-03-29T03:18:04;0.72;;;0.60;;
47481;SDS011;33219;47.410;9.730;2024-03-29T03:20:31;1.12;;;0.72;;
47481;SDS011;33219;47.410;9.730;2024-03-29T03:23:00;2.08;;;0.80;;
47481;SDS011;33219;47.410;9.730;2024-03-29T03:25:28;1.07;;;0.80;;
47481;SDS011;33219;47.410;9.730;2024-03-29T03:27:55;2.52;;;0.78;;
47481;SDS011;33219;47.410;9.730;2024-03-29T03:30:23;0.88;;;0.75;;
47481;SDS011;33219;47.410;9.730;2024-03-29T03:32:50;1.35;;;0.80;;
47481;SDS011;33219;47.410;9.730;2024-03-29T03:35:18;1.47;;;0.95;;
47481;SDS011;33219;47.410;9.730;2024-03-29T03:37:45;0.85;;;0.65;;
47481;SDS011;33219;47.410;9.730;2024-03-29T03:40:15;1.17;;;0.68;;
47481;SDS011;33219;47.410;9.730;2024-03-29T03:42:42;0.62;;;0.57;;
47481;SDS011;33219;47.410;9.730;2024-03-29T03:45:10;1.32;;;0.90;;
47481;SDS011;33219;47.410;9.730;2024-03-29T03:47:37;1.07;;;0.60;;
47481;SDS011;33219;47.410;9.730;2024-03-29T03:50:05;0.70;;;0.62;;
47481;SDS011;33219;47.410;9.730;2024-03-29T03:52:33;1.65;;;0.88;;
47481;SDS011;33219;47.410;9.730;2024-03-29T03:55:00;2.17;;;0.80;;
47481;SDS011;33219;47.410;9.730;2024-03-29T03:57:28;1.72;;;0.90;;
47481;SDS011;33219;47.410;9.730;2024-03-29T03:59:56;1.80;;;0.80;;
47481;SDS011;33219;47.410;9.730;2024-03-29T04:02:24;1.07;;;0.70;;
47481;SDS011;33219;47.410;9.730;2024-03-29T04:04:51;0.65;;;0.55;;
47481;SDS011;33219;47.410;9.730;2024-03-29T04:07:19;0.95;;;0.68;;
47481;SDS011;33219;47.410;9.730;2024-03-29T04:09:50;1.77;;;0.62;;
47481;SDS011;33219;47.410;9.730;2024-03-29T04:12:19;2.08;;;0.57;;
47481;SDS011;33219;47.410;9.730;2024-03-29T04:14:47;0.88;;;0.82;;
47481;SDS011;33219;47.410;9.730;2024-03-29T04:17:14;0.72;;;0.60;;
47481;SDS011;33219;47.410;9.730;2024-03-29T04:19:42;0.95;;;0.72;;
47481;SDS011;33219;47.410;9.730;2024-03-29T04:22:09;0.70;;;0.55;;
47481;SDS011;33219;47.410;9.730;2024-03-29T04:24:37;1.22;;;0.53;;
47481;SDS011;33219;47.410;9.730;2024-03-29T04:27:04;2.05;;;0.90;;
47481;SDS011;33219;47.410;9.730;2024-03-29T04:29:32;0.93;;;0.60;;
47481;SDS011;33219;47.410;9.730;2024-03-29T04:32:00;3.02;;;1.20;;
47481;SDS011;33219;47.410;9.730;2024-03-29T04:34:27;2.47;;;1.10;;
47481;SDS011;33219;47.410;9.730;2024-03-29T04:36:55;1.22;;;0.85;;
47481;SDS011;33219;47.410;9.730;2024-03-29T04:39:22;1.45;;;0.80;;
47481;SDS011;33219;47.410;9.730;2024-03-29T04:41:50;1.65;;;1.10;;
47481;SDS011;33219;47.410;9.730;2024-03-29T04:44:24;1.15;;;0.88;;
47481;SDS011;33219;47.410;9.730;2024-03-29T04:46:52;1.95;;;1.15;;
47481;SDS011;33219;47.410;9.730;2024-03-29T04:49:22;2.45;;;0.93;;
47481;SDS011;33219;47.410;9.730;2024-03-29T04:52:06;1.27;;;1.00;;
47481;SDS011;33219;47.410;9.730;2024-03-29T04:54:34;1.05;;;0.95;;
47481;SDS011;33219;47.410;9.730;2024-03-29T04:57:02;1.87;;;1.10;;
47481;SDS011;33219;47.410;9.730;2024-03-29T04:59:32;3.33;;;1.27;;
47481;SDS011;33219;47.410;9.730;2024-03-29T05:02:00;4.12;;;1.70;;
47481;SDS011;33219;47.410;9.730;2024-03-29T05:04:28;2.40;;;0.65;;
47481;SDS011;33219;47.410;9.730;2024-03-29T05:06:56;0.93;;;0.55;;
47481;SDS011;33219;47.410;9.730;2024-03-29T05:09:25;1.32;;;0.90;;
47481;SDS011;33219;47.410;9.730;2024-03-29T05:11:52;2.00;;;0.80;;
47481;SDS011;33219;47.410;9.730;2024-03-29T05:14:21;0.70;;;0.60;;
47481;SDS011;33219;47.410;9.730;2024-03-29T05:16:49;0.82;;;0.70;;
47481;SDS011;33219;47.410;9.730;2024-03-29T05:19:17;0.88;;;0.57;;
47481;SDS011;33219;47.410;9.730;2024-03-29T05:21:44;2.12;;;0.68;;
47481;SDS011;33219;47.410;9.730;2024-03-29T05:24:12;0.93;;;0.60;;
47481;SDS011;33219;47.410;9.730;2024-03-29T05:26:39;0.85;;;0.55;;
47481;SDS011;33219;47.410;9.730;2024-03-29T05:29:07;0.78;;;0.53;;
47481;SDS011;33219;47.410;9.730;2024-03-29T05:31:34;2.92;;;1.37;;
47481;SDS011;33219;47.410;9.730;2024-03-29T05:34:02;0.70;;;0.62;;
47481;SDS011;33219;47.410;9.730;2024-03-29T05:36:30;0.60;;;0.60;;
47481;SDS011;33219;47.410;9.730;2024-03-29T05:38:58;1.15;;;0.70;;
47481;SDS011;33219;47.410;9.730;2024-03-29T05:41:25;1.15;;;0.78;;
47481;SDS011;33219;47.410;9.730;2024-03-29T05:43:53;1.65;;;0.57;;
47481;SDS011;33219;47.410;9.730;2024-03-29T05:46:21;0.93;;;0.68;;
47481;SDS011;33219;47.410;9.730;2024-03-29T05:48:48;0.40;;;0.37;;
47481;SDS011;33219;47.410;9.730;2024-03-29T05:51:16;0.68;;;0.60;;
47481;SDS011;33219;47.410;9.730;2024-03-29T05:53:43;2.12;;;0.88;;
47481;SDS011;33219;47.410;9.730;2024-03-29T05:56:11;0.75;;;0.70;;
47481;SDS011;33219;47.410;9.730;2024-03-29T05:58:39;1.22;;;1.00;;
47481;SDS011;33219;47.410;9.730;2024-03-29T06:01:07;1.50;;;1.00;;
47481;SDS011;33219;47.410;9.730;2024-03-29T06:03:35;1.32;;;0.70;;
47481;SDS011;33219;47.410;9.730;2024-03-29T06:06:02;2.40;;;0.80;;
47481;SDS011;33219;47.410;9.730;2024-03-29T06:08:30;0.60;;;0.60;;
47481;SDS011;33219;47.410;9.730;2024-03-29T06:10:58;0.90;;;0.60;;
47481;SDS011;33219;47.410;9.730;2024-03-29T06:13:27;3.00;;;1.02;;
47481;SDS011;33219;47.410;9.730;2024-03-29T06:16:12;3.77;;;2.05;;
47481;SDS011;33219;47.410;9.730;2024-03-29T06:18:58;3.33;;;1.55;;
47481;SDS011;33219;47.410;9.730;2024-03-29T06:21:26;2.55;;;1.52;;
47481;SDS011;33219;47.410;9.730;2024-03-29T06:23:54;1.77;;;1.25;;
47481;SDS011;33219;47.410;9.730;2024-03-29T06:26:21;3.92;;;1.60;;
47481;SDS011;33219;47.410;9.730;2024-03-29T06:28:49;2.00;;;0.98;;
47481;SDS011;33219;47.410;9.730;2024-03-29T06:31:16;4.37;;;2.22;;
47481;SDS011;33219;47.410;9.730;2024-03-29T06:33:44;6.65;;;1.87;;
47481;SDS011;33219;47.410;9.730;2024-03-29T06:36:12;2.40;;;1.27;;
47481;SDS011;33219;47.410;9.730;2024-03-29T06:38:39;8.38;;;1.52;;
47481;SDS011;33219;47.410;9.730;2024-03-29T06:41:07;12.15;;;2.55;;
47481;SDS011;33219;47.410;9.730;2024-03-29T06:43:36;2.47;;;0.60;;
47481;SDS011;33219;47.410;9.730;2024-03-29T06:46:03;7.87;;;1.65;;
47481;SDS011;33219;47.410;9.730;2024-03-29T06:48:31;2.10;;;1.00;;
47481;SDS011;33219;47.410;9.730;2024-03-29T06:50:59;1.15;;;0.93;;
47481;SDS011;33219;47.410;9.730;2024-03-29T06:53:26;4.10;;;1.20;;
47481;SDS011;33219;47.410;9.730;2024-03-29T06:55:54;1.27;;;0.80;;
47481;SDS011;33219;47.410;9.730;2024-03-29T06:58:23;3.15;;;1.20;;
47481;SDS011;33219;47.410;9.730;2024-03-29T07:00:50;1.57;;;0.98;;
47481;SDS011;33219;47.410;9.730;2024-03-29T07:03:18;1.85;;;1.00;;
47481;SDS011;33219;47.410;9.730;2024-03-29T07:05:46;3.30;;;1.27;;
47481;SDS011;33219;47.410;9.730;2024-03-29T07:08:13;3.12;;;1.37;;
47481;SDS011;33219;47.410;9.730;2024-03-29T07:10:41;2.00;;;1.25;;
47481;SDS011;33219;47.410;9.730;2024-03-29T07:13:09;2.70;;;1.40;;
47481;SDS011;33219;47.410;9.730;2024-03-29T07:15:37;4.60;;;1.42;;
47481;SDS011;33219;47.410;9.730;2024-03-29T07:18:04;2.80;;;1.40;;
47481;SDS011;33219;47.410;9.730;2024-03-29T07:20:32;4.55;;;1.80;;
47481;SDS011;33219;47.410;9.730;2024-03-29T07:23:00;2.47;;;1.35;;
47481;SDS011;33219;47.410;9.730;2024-03-29T07:25:27;5.30;;;1.50;;
47481;SDS011;33219;47.410;9.730;2024-03-29T07:27:55;2.77;;;1.20;;
47481;SDS011;33219;47.410;9.730;2024-03-29T07:30:23;4.30;;;1.50;;
47481;SDS011;33219;47.410;9.730;2024-03-29T07:32:50;4.72;;;1.35;;
47481;SDS011;33219;47.410;9.730;2024-03-29T07:35:18;19.25;;;4.30;;
47481;SDS011;33219;47.410;9.730;2024-03-29T07:37:45;11.95;;;2.40;;
47481;SDS011;33219;47.410;9.730;2024-03-29T07:40:15;2.12;;;1.12;;
47481;SDS011;33219;47.410;9.730;2024-03-29T07:42:42;2.70;;;0.82;;
47481;SDS011;33219;47.410;9.730;2024-03-29T07:45:10;1.50;;;1.00;;
47481;SDS011;33219;47.410;9.730;2024-03-29T07:47:39;1.52;;;0.80;;
47481;SDS011;33219;47.410;9.730;2024-03-29T07:50:07;2.33;;;0.93;;
47481;SDS011;33219;47.410;9.730;2024-03-29T07:52:36;4.83;;;1.50;;
47481;SDS011;33219;47.410;9.730;2024-03-29T07:55:03;47.08;;;5.90;;
47481;SDS011;33219;47.410;9.730;2024-03-29T07:57:31;1.98;;;1.02;;
47481;SDS011;33219;47.410;9.730;2024-03-29T07:59:59;2.77;;;1.00;;
47481;SDS011;33219;47.410;9.730;2024-03-29T08:02:26;1.22;;;0.50;;
47481;SDS011;33219;47.410;9.730;2024-03-29T08:04:54;2.60;;;1.22;;
47481;SDS011;33219;47.410;9.730;2024-03-29T08:07:21;1.98;;;1.42;;
47481;SDS011;33219;47.410;9.730;2024-03-29T08:09:49;2.33;;;1.15;;
47481;SDS011;33219;47.410;9.730;2024-03-29T08:43:27;1.50;;;0.90;;
47481;SDS011;33219;47.410;9.730;2024-03-29T08:45:55;3.27;;;0.78;;
47481;SDS011;33219;47.410;9.730;2024-03-29T08:48:23;2.62;;;1.25;;
47481;SDS011;33219;47.410;9.730;2024-03-29T08:50:51;1.07;;;0.60;;
47481;SDS011;33219;47.410;9.730;2024-03-29T08:53:19;3.45;;;0.93;;
47481;SDS011;33219;47.410;9.730;2024-03-29T08:55:48;2.10;;;0.68;;
47481;SDS011;33219;47.410;9.730;2024-03-29T08:58:16;3.33;;;1.05;;
47481;SDS011;33219;47.410;9.730;2024-03-29T09:00:52;0.85;;;0.30;;
47481;SDS011;33219;47.410;9.730;2024-03-29T09:03:22;2.62;;;0.60;;
47481;SDS011;33219;47.410;9.730;2024-03-29T09:05:51;0.45;;;0.45;;
47481;SDS011;33219;47.410;9.730;2024-03-29T09:08:18;1.30;;;0.60;;
47481;SDS011;33219;47.410;9.730;2024-03-29T09:10:46;1.42;;;0.50;;
47481;SDS011;33219;47.410;9.730;2024-03-29T09:13:14;6.33;;;1.40;;
47481;SDS011;33219;47.410;9.730;2024-03-29T09:15:41;1.20;;;0.60;;
47481;SDS011;33219;47.410;9.730;2024-03-29T09:18:09;4.00;;;0.62;;
47481;SDS011;33219;47.410;9.730;2024-03-29T09:20:38;3.77;;;0.75;;
47481;SDS011;33219;47.410;9.730;2024-03-29T09:23:07;2.45;;;0.80;;
47481;SDS011;33219;47.410;9.730;2024-03-29T09:25:39;2.33;;;0.70;;
47481;SDS011;33219;47.410;9.730;2024-03-29T09:30:35;10.82;;;1.72;;
47481;SDS011;33219;47.410;9.730;2024-03-29T09:33:03;2.85;;;0.70;;
47481;SDS011;33219;47.410;9.730;2024-03-29T09:38:03;9.88;;;1.72;;
47481;SDS011;33219;47.410;9.730;2024-03-29T09:40:33;1.10;;;0.47;;
47481;SDS011;33219;47.410;9.730;2024-03-29T09:43:00;1.50;;;1.15;;
47481;SDS011;33219;47.410;9.730;2024-03-29T09:45:30;0.75;;;0.50;;
47481;SDS011;33219;47.410;9.730;2024-03-29T09:48:06;2.70;;;0.90;;
47481;SDS011;33219;47.410;9.730;2024-03-29T09:50:35;0.85;;;0.50;;
47481;SDS011;33219;47.410;9.730;2024-03-29T09:53:08;1.55;;;0.75;;
47481;SDS011;33219;47.410;9.730;2024-03-29T09:55:35;1.47;;;0.80;;
47481;SDS011;33219;47.410;9.730;2024-03-29T09:58:03;1.07;;;0.53;;
47481;SDS011;33219;47.410;9.730;2024-03-29T10:00:31;9.60;;;1.45;;
47481;SDS011;33219;47.410;9.730;2024-03-29T10:02:59;4.67;;;0.95;;
47481;SDS011;33219;47.410;9.730;2024-03-29T10:05:27;4.17;;;0.90;;
47481;SDS011;33219;47.410;9.730;2024-03-29T10:07:55;6.75;;;0.98;;
47481;SDS011;33219;47.410;9.730;2024-03-29T10:10:26;9.35;;;2.05;;
47481;SDS011;33219;47.410;9.730;2024-03-29T10:12:53;8.75;;;1.27;;
47481;SDS011;33219;47.410;9.730;2024-03-29T10:15:21;5.12;;;0.82;;
47481;SDS011;33219;47.410;9.730;2024-03-29T10:17:50;0.47;;;0.35;;
47481;SDS011;33219;47.410;9.730;2024-03-29T10:20:18;1.95;;;0.55;;
47481;SDS011;33219;47.410;9.730;2024-03-29T10:22:48;2.10;;;0.75;;
47481;SDS011;33219;47.410;9.730;2024-03-29T10:25:15;0.93;;;0.50;;
47481;SDS011;33219;47.410;9.730;2024-03-29T10:27:44;0.82;;;0.35;;
47481;SDS011;33219;47.410;9.730;2024-03-29T10:30:12;1.12;;;0.40;;
47481;SDS011;33219;47.410;9.730;2024-03-29T10:32:41;9.38;;;1.02;;
47481;SDS011;33219;47.410;9.730;2024-03-29T10:35:09;4.40;;;0.75;;
47481;SDS011;33219;47.410;9.730;2024-03-29T10:37:37;0.50;;;0.33;;
47481;SDS011;33219;47.410;9.730;2024-03-29T10:40:09;1.37;;;0.40;;
47481;SDS011;33219;47.410;9.730;2024-03-29T10:42:38;0.98;;;0.30;;
47481;SDS011;33219;47.410;9.730;2024-03-29T10:45:07;3.70;;;0.45;;
47481;SDS011;33219;47.410;9.730;2024-03-29T10:47:36;0.62;;;0.28;;
47481;SDS011;33219;47.410;9.730;2024-03-29T10:50:03;0.25;;;0.23;;
47481;SDS011;33219;47.410;9.730;2024-03-29T10:52:32;4.80;;;0.55;;
47481;SDS011;33219;47.410;9.730;2024-03-29T10:55:01;0.95;;;0.30;;
47481;SDS011;33219;47.410;9.730;2024-03-29T10:57:29;1.17;;;0.20;;
47481;SDS011;33219;47.410;9.730;2024-03-29T11:00:03;0.40;;;0.15;;
47481;SDS011;33219;47.410;9.730;2024-03-29T11:02:51;2.90;;;0.55;;
47481;SDS011;33219;47.410;9.730;2024-03-29T11:05:32;3.05;;;0.30;;
47481;SDS011;33219;47.410;9.730;2024-03-29T11:08:02;0.10;;;0.10;;
47481;SDS011;33219;47.410;9.730;2024-03-29T11:10:41;0.57;;;0.30;;
47481;SDS011;33219;47.410;9.730;2024-03-29T11:13:16;0.88;;;0.20;;
47481;SDS011;33219;47.410;9.730;2024-03-29T11:15:59;0.23;;;0.15;;
47481;SDS011;33219;47.410;9.730;2024-03-29T11:18:29;1.27;;;0.30;;
47481;SDS011;33219;47.410;9.730;2024-03-29T11:20:57;1.47;;;0.45;;
47481;SDS011;33219;47.410;9.730;2024-03-29T11:23:27;2.75;;;0.35;;
47481;SDS011;33219;47.410;9.730;2024-03-29T11:25:55;0.20;;;0.10;;
47481;SDS011;33219;47.410;9.730;2024-03-29T11:28:30;3.10;;;0.50;;
47481;SDS011;33219;47.410;9.730;2024-03-29T11:31:00;0.72;;;0.42;;
47481;SDS011;33219;47.410;9.730;2024-03-29T11:33:32;2.00;;;0.20;;
47481;SDS011;33219;47.410;9.730;2024-03-29T11:38:45;0.33;;;0.10;;
47481;SDS011;33219;47.410;9.730;2024-03-29T11:41:15;0.15;;;0.10;;
47481;SDS011;33219;47.410;9.730;2024-03-29T11:43:53;0.13;;;0.10;;
47481;SDS011;33219;47.410;9.730;2024-03-29T11:46:21;26.73;;;2.83;;
47481;SDS011;33219;47.410;9.730;2024-03-29T11:48:50;0.68;;;0.20;;
47481;SDS011;33219;47.410;9.730;2024-03-29T11:51:21;0.30;;;0.20;;
47481;SDS011;33219;47.410;9.730;2024-03-29T11:53:50;0.57;;;0.20;;
47481;SDS011;33219;47.410;9.730;2024-03-29T11:56:18;4.72;;;0.60;;
47481;SDS011;33219;47.410;9.730;2024-03-29T11:58:47;0.75;;;0.28;;
47481;SDS011;33219;47.410;9.730;2024-03-29T12:01:15;0.20;;;0.10;;
47481;SDS011;33219;47.410;9.730;2024-03-29T12:03:44;0.90;;;0.23;;
47481;SDS011;33219;47.410;9.730;2024-03-29T12:06:14;0.10;;;0.10;;
47481;SDS011;33219;47.410;9.730;2024-03-29T12:08:43;0.05;;;0.05;;
47481;SDS011;33219;47.410;9.730;2024-03-29T12:11:10;0.10;;;0.10;;
47481;SDS011;33219;47.410;9.730;2024-03-29T12:13:39;0.10;;;0.10;;
47481;SDS011;33219;47.410;9.730;2024-03-29T12:16:07;0.50;;;0.10;;
47481;SDS011;33219;47.410;9.730;2024-03-29T12:18:34;0.50;;;0.25;;
47481;SDS011;33219;47.410;9.730;2024-03-29T12:21:02;1.95;;;0.55;;
47481;SDS011;33219;47.410;9.730;2024-03-29T12:23:30;0.37;;;0.20;;
47481;SDS011;33219;47.410;9.730;2024-03-29T12:25:58;0.20;;;0.10;;
47481;SDS011;33219;47.410;9.730;2024-03-29T12:28:26;0.42;;;0.35;;
47481;SDS011;33219;47.410;9.730;2024-03-29T12:30:56;0.75;;;0.13;;
47481;SDS011;33219;47.410;9.730;2024-03-29T12:33:26;0.68;;;0.10;;
47481;SDS011;33219;47.410;9.730;2024-03-29T12:35:54;0.47;;;0.30;;
47481;SDS011;33219;47.410;9.730;2024-03-29T12:38:22;1.02;;;0.30;;
47481;SDS011;33219;47.410;9.730;2024-03-29T12:40:50;1.75;;;0.23;;
47481;SDS011;33219;47.410;9.730;2024-03-29T12:43:22;2.22;;;0.40;;
47481;SDS011;33219;47.410;9.730;2024-03-29T12:45:50;0.65;;;0.35;;
47481;SDS011;33219;47.410;9.730;2024-03-29T12:48:19;0.85;;;0.40;;
47481;SDS011;33219;47.410;9.730;2024-03-29T12:50:50;0.35;;;0.20;;
47481;SDS011;33219;47.410;9.730;2024-03-29T12:53:19;1.30;;;0.30;;
47481;SDS011;33219;47.410;9.730;2024-03-29T12:55:47;0.20;;;0.10;;
47481;SDS011;33219;47.410;9.730;2024-03-29T12:58:16;0.20;;;0.20;;
47481;SDS011;33219;47.410;9.730;2024-03-29T13:00:46;0.35;;;0.10;;
47481;SDS011;33219;47.410;9.730;2024-03-29T13:03:14;0.30;;;0.20;;
47481;SDS011;33219;47.410;9.730;2024-03-29T13:05:41;0.45;;;0.40;;
47481;SDS011;33219;47.410;9.730;2024-03-29T13:08:13;1.20;;;0.40;;
47481;SDS011;33219;47.410;9.730;2024-03-29T13:10:44;1.17;;;0.20;;
47481;SDS011;33219;47.410;9.730;2024-03-29T13:13:11;0.20;;;0.20;;
47481;SDS011;33219;47.410;9.730;2024-03-29T13:15:39;1.02;;;0.60;;
47481;SDS011;33219;47.410;9.730;2024-03-29T13:18:08;0.23;;;0.20;;
47481;SDS011;33219;47.410;9.730;2024-03-29T13:20:36;0.85;;;0.30;;
47481;SDS011;33219;47.410;9.730;2024-03-29T13:23:08;1.47;;;0.50;;
47481;SDS011;33219;47.410;9.730;2024-03-29T13:25:36;0.53;;;0.40;;
47481;SDS011;33219;47.410;9.730;2024-03-29T13:28:05;0.68;;;0.30;;
47481;SDS011;33219;47.410;9.730;2024-03-29T13:30:34;0.88;;;0.30;;
47481;SDS011;33219;47.410;9.730;2024-03-29T13:33:03;1.10;;;0.53;;
47481;SDS011;33219;47.410;9.730;2024-03-29T13:35:31;1.55;;;0.53;;
47481;SDS011;33219;47.410;9.730;2024-03-29T13:38:00;2.27;;;0.62;;
47481;SDS011;33219;47.410;9.730;2024-03-29T13:40:28;1.98;;;0.68;;
47481;SDS011;33219;47.410;9.730;2024-03-29T13:42:56;1.20;;;0.70;;
47481;SDS011;33219;47.410;9.730;2024-03-29T13:45:24;1.80;;;0.72;;
47481;SDS011;33219;47.410;9.730;2024-03-29T13:47:53;1.65;;;0.85;;
47481;SDS011;33219;47.410;9.730;2024-03-29T13:50:21;2.90;;;0.85;;
47481;SDS011;33219;47.410;9.730;2024-03-29T13:52:49;4.78;;;1.20;;
47481;SDS011;33219;47.410;9.730;2024-03-29T13:55:17;3.87;;;1.10;;
47481;SDS011;33219;47.410;9.730;2024-03-29T13:57:45;5.40;;;1.82;;
47481;SDS011;33219;47.410;9.730;2024-03-29T14:00:12;10.75;;;1.70;;
47481;SDS011;33219;47.410;9.730;2024-03-29T14:02:42;9.30;;;2.30;;
47481;SDS011;33219;47.410;9.730;2024-03-29T14:05:09;15.28;;;3.10;;
47481;SDS011;33219;47.410;9.730;2024-03-29T14:07:38;15.98;;;3.08;;
47481;SDS011;33219;47.410;9.730;2024-03-29T14:10:06;15.32;;;2.80;;
47481;SDS011;33219;47.410;9.730;2024-03-29T14:12:34;19.70;;;3.27;;
47481;SDS011;33219;47.410;9.730;2024-03-29T14:15:02;24.65;;;4.78;;
47481;SDS011;33219;47.410;9.730;2024-03-29T14:17:31;19.05;;;5.08;;
47481;SDS011;33219;47.410;9.730;2024-03-29T14:19:59;22.20;;;4.53;;
47481;SDS011;33219;47.410;9.730;2024-03-29T14:22:27;24.95;;;4.67;;
47481;SDS011;33219;47.410;9.730;2024-03-29T14:24:56;36.13;;;5.75;;
47481;SDS011;33219;47.410;9.730;2024-03-29T14:27:23;35.50;;;6.22;;
47481;SDS011;33219;47.410;9.730;2024-03-29T14:29:52;39.15;;;6.75;;
47481;SDS011;33219;47.410;9.730;2024-03-29T14:32:21;28.02;;;6.20;;
47481;SDS011;33219;47.410;9.730;2024-03-29T14:34:48;39.30;;;6.12;;
47481;SDS011;33219;47.410;9.730;2024-03-29T14:37:16;29.80;;;6.80;;
47481;SDS011;33219;47.410;9.730;2024-03-29T14:39:43;48.05;;;8.30;;
47481;SDS011;33219;47.410;9.730;2024-03-29T14:42:11;38.48;;;7.30;;
47481;SDS011;33219;47.410;9.730;2024-03-29T14:44:40;33.08;;;7.22;;
47481;SDS011;33219;47.410;9.730;2024-03-29T14:47:08;34.85;;;7.33;;
47481;SDS011;33219;47.410;9.730;2024-03-29T14:49:35;49.30;;;7.20;;
47481;SDS011;33219;47.410;9.730;2024-03-29T14:52:03;36.23;;;6.55;;
47481;SDS011;33219;47.410;9.730;2024-03-29T14:54:31;42.58;;;9.10;;
47481;SDS011;33219;47.410;9.730;2024-03-29T14:56:59;37.15;;;7.90;;
47481;SDS011;33219;47.410;9.730;2024-03-29T14:59:26;32.17;;;5.80;;
47481;SDS011;33219;47.410;9.730;2024-03-29T15:01:56;38.85;;;6.85;;
47481;SDS011;33219;47.410;9.730;2024-03-29T15:04:23;34.75;;;6.78;;
47481;SDS011;33219;47.410;9.730;2024-03-29T15:06:51;24.23;;;6.47;;
47481;SDS011;33219;47.410;9.730;2024-03-29T15:09:19;32.08;;;7.12;;
47481;SDS011;33219;47.410;9.730;2024-03-29T15:11:46;33.35;;;6.85;;
47481;SDS011;33219;47.410;9.730;2024-03-29T15:14:14;40.40;;;8.05;;
47481;SDS011;33219;47.410;9.730;2024-03-29T15:16:42;39.88;;;6.90;;
47481;SDS011;33219;47.410;9.730;2024-03-29T15:19:10;42.67;;;6.95;;
47481;SDS011;33219;47.410;9.730;2024-03-29T15:21:37;36.15;;;5.97;;
47481;SDS011;33219;47.410;9.730;2024-03-29T15:24:06;35.48;;;7.00;;
47481;SDS011;33219;47.410;9.730;2024-03-29T15:26:33;32.15;;;6.42;;
47481;SDS011;33219;47.410;9.730;2024-03-29T15:29:05;29.05;;;5.65;;
47481;SDS011;33219;47.410;9.730;2024-03-29T15:31:39;32.40;;;6.25;;